createdAt,value
2022-08-04T00:01:31.668Z,1.60
2022-08-04T00:04:01.972Z,1.60
2022-08-04T00:06:40.824Z,1.60
2022-08-04T00:09:13.584Z,1.70
2022-08-04T00:11:45.655Z,1.90
2022-08-04T00:14:14.504Z,1.50
2022-08-04T00:16:42.875Z,1.77
2022-08-04T00:19:11.998Z,1.90
2022-08-04T00:21:46.212Z,1.40
2022-08-04T00:24:14.435Z,1.63
2022-08-04T00:26:42.631Z,1.70
2022-08-04T00:29:09.320Z,1.70
2022-08-04T00:31:56.329Z,1.80
2022-08-04T00:34:25.101Z,1.73
2022-08-04T00:36:54.118Z,1.70
2022-08-04T00:39:21.180Z,1.33
2022-08-04T00:42:05.182Z,1.70
2022-08-04T00:44:47.072Z,1.60
2022-08-04T00:47:34.675Z,1.50
2022-08-04T00:50:08.552Z,1.60
2022-08-04T00:53:01.652Z,1.90
2022-08-04T00:55:42.026Z,1.60
2022-08-04T00:58:27.703Z,1.40
2022-08-04T01:01:00.542Z,1.43
2022-08-04T01:03:45.487Z,1.50
2022-08-04T01:06:24.470Z,1.40
2022-08-04T01:09:04.261Z,1.57
2022-08-04T01:11:56.564Z,1.67
2022-08-04T01:14:44.253Z,1.50
2022-08-04T01:17:20.749Z,1.77
2022-08-04T01:20:00.284Z,1.63
2022-08-04T01:22:57.140Z,1.47
2022-08-04T01:25:47.720Z,1.50
2022-08-04T01:28:29.185Z,1.47
2022-08-04T01:31:02.705Z,1.60
2022-08-04T01:33:30.007Z,1.47
2022-08-04T01:36:02.102Z,1.40
2022-08-04T01:38:31.221Z,1.43
2022-08-04T01:41:02.480Z,1.70
2022-08-04T01:43:32.288Z,1.50
2022-08-04T01:46:01.991Z,1.50
2022-08-04T01:48:30.051Z,1.70
2022-08-04T01:50:58.990Z,1.70
2022-08-04T01:53:30.791Z,1.50
2022-08-04T01:55:58.064Z,1.67
2022-08-04T01:58:28.641Z,1.77
2022-08-04T02:01:01.278Z,1.67
2022-08-04T02:04:18.192Z,1.60
2022-08-04T02:06:31.024Z,1.60
2022-08-04T02:09:08.358Z,1.60
2022-08-04T02:11:34.943Z,1.60
2022-08-04T02:14:06.589Z,1.57
2022-08-04T02:16:44.395Z,1.70
2022-08-04T02:19:20.216Z,1.50
2022-08-04T02:21:51.528Z,1.47
2022-08-04T02:24:26.706Z,1.57
2022-08-04T02:26:56.364Z,1.67
2022-08-04T02:29:34.418Z,1.43
2022-08-04T02:32:04.988Z,1.73
2022-08-04T02:34:38.608Z,1.60
2022-08-04T02:37:05.947Z,1.97
2022-08-04T02:39:48.752Z,1.70
2022-08-04T02:42:16.747Z,1.73
2022-08-04T02:44:43.547Z,1.60
2022-08-04T02:47:11.780Z,1.43
2022-08-04T02:49:41.298Z,1.70
2022-08-04T02:52:10.099Z,1.60
2022-08-04T02:54:40.092Z,1.70
2022-08-04T02:57:09.765Z,1.80
2022-08-04T02:59:51.524Z,1.70
2022-08-04T03:02:27.872Z,1.57
2022-08-04T03:05:00.523Z,1.90
2022-08-04T03:07:51.080Z,1.83
2022-08-04T03:10:52.030Z,1.50
2022-08-04T03:13:41.729Z,1.43
2022-08-04T03:16:47.800Z,1.50
2022-08-04T03:19:35.133Z,1.90
2022-08-04T03:22:32.114Z,1.80
2022-08-04T03:25:57.035Z,2.20
2022-08-04T03:28:57.909Z,1.63
2022-08-04T03:32:02.459Z,1.70
2022-08-04T03:34:43.977Z,2.03
2022-08-04T03:37:36.470Z,1.60
2022-08-04T03:40:44.776Z,1.67
2022-08-04T03:43:57.446Z,1.40
2022-08-04T03:47:07.736Z,1.60
2022-08-04T03:50:07.039Z,1.47
2022-08-04T03:52:53.198Z,1.60
2022-08-04T03:55:40.969Z,1.50
2022-08-04T03:58:39.284Z,1.60
2022-08-04T04:01:16.739Z,1.50
2022-08-04T04:04:06.765Z,1.53
2022-08-04T04:07:12.042Z,1.60
2022-08-04T04:10:17.476Z,1.30
2022-08-04T04:13:11.113Z,1.60
2022-08-04T04:15:51.387Z,1.63
2022-08-04T04:18:47.279Z,1.57
2022-08-04T04:21:32.885Z,1.67
2022-08-04T04:24:34.783Z,2.10
2022-08-04T04:27:11.559Z,1.67
2022-08-04T04:30:04.107Z,1.80
2022-08-04T04:32:41.826Z,1.47
2022-08-04T04:35:22.825Z,1.40
2022-08-04T04:38:05.671Z,1.60
2022-08-04T04:40:48.606Z,1.53
2022-08-04T04:43:51.692Z,1.63
2022-08-04T04:46:30.063Z,1.53
2022-08-04T04:49:03.893Z,1.50
2022-08-04T04:51:37.536Z,1.40
2022-08-04T04:54:08.500Z,1.90
2022-08-04T04:56:40.759Z,1.87
2022-08-04T04:59:10.851Z,1.80
2022-08-04T05:02:00.547Z,1.83
2022-08-04T05:04:55.813Z,2.10
2022-08-04T05:07:51.007Z,1.80
2022-08-04T05:10:32.791Z,1.80
2022-08-04T05:14:38.767Z,1.40
2022-08-04T05:16:08.851Z,1.50
2022-08-04T05:18:38.862Z,1.53
2022-08-04T05:21:19.389Z,1.60
2022-08-04T05:23:51.414Z,1.70
2022-08-04T05:26:25.249Z,1.83
2022-08-04T05:28:55.896Z,1.50
2022-08-04T05:31:27.217Z,1.57
2022-08-04T05:33:57.065Z,1.47
2022-08-04T05:36:41.128Z,1.53
2022-08-04T05:39:12.603Z,1.50
2022-08-04T05:41:46.202Z,1.43
2022-08-04T05:44:17.485Z,1.90
2022-08-04T05:46:45.584Z,1.60
2022-08-04T05:49:22.268Z,1.57
2022-08-04T05:51:49.528Z,1.60
2022-08-04T05:54:18.354Z,1.93
2022-08-04T05:56:45.151Z,1.80
2022-08-04T05:59:13.793Z,2.00
2022-08-04T06:01:55.326Z,1.73
2022-08-04T06:04:24.645Z,2.40
2022-08-04T06:06:52.884Z,1.87
2022-08-04T06:09:19.417Z,2.23
2022-08-04T06:12:03.913Z,2.30
2022-08-04T06:14:37.891Z,2.27
2022-08-04T06:18:32.145Z,2.00
2022-08-04T06:20:18.142Z,1.90
2022-08-04T06:22:46.433Z,1.90
2022-08-04T06:25:17.519Z,2.30
2022-08-04T06:27:44.423Z,1.97
2022-08-04T06:30:11.623Z,2.30
2022-08-04T06:32:42.161Z,2.03
2022-08-04T06:35:10.002Z,1.80
2022-08-04T06:37:42.693Z,2.00
2022-08-04T06:40:30.736Z,2.20
2022-08-04T06:43:01.127Z,2.17
2022-08-04T06:45:28.380Z,2.00
2022-08-04T06:47:56.535Z,2.37
2022-08-04T06:51:32.678Z,2.37
2022-08-04T06:53:10.291Z,2.47
2022-08-04T06:55:37.113Z,2.40
2022-08-04T06:58:06.170Z,1.90
2022-08-04T07:00:34.524Z,1.97
2022-08-04T07:03:03.623Z,2.10
2022-08-04T07:05:31.382Z,1.63
2022-08-04T07:07:58.903Z,2.10
2022-08-04T07:10:26.678Z,2.13
2022-08-04T07:12:54.104Z,1.90
2022-08-04T07:15:22.307Z,1.80
2022-08-04T07:17:52.372Z,1.90
2022-08-04T07:20:33.816Z,1.90
2022-08-04T07:23:03.466Z,1.90
2022-08-04T07:26:00.387Z,1.80
2022-08-04T07:28:17.305Z,1.93
2022-08-04T07:30:45.178Z,1.70
2022-08-04T07:33:13.152Z,1.83
2022-08-04T07:36:09.203Z,1.50
2022-08-04T07:38:27.981Z,1.20
2022-08-04T07:40:55.128Z,1.60
2022-08-04T07:43:22.631Z,1.53
2022-08-04T07:45:49.426Z,1.60
2022-08-04T07:48:16.092Z,1.67
2022-08-04T07:50:45.229Z,1.40
2022-08-04T07:53:55.559Z,1.40
2022-08-04T07:56:00.361Z,1.30
2022-08-04T07:58:29.919Z,1.17
2022-08-04T08:00:57.157Z,1.52
2022-08-04T08:03:24.580Z,1.35
2022-08-04T08:06:16.519Z,1.35
2022-08-04T08:08:39.549Z,1.50
2022-08-04T08:11:06.329Z,1.45
2022-08-04T08:13:33.682Z,1.42
2022-08-04T08:16:01.119Z,1.80
2022-08-04T08:18:27.721Z,1.02
2022-08-04T08:20:56.183Z,1.27
2022-08-04T08:23:23.085Z,1.20
2022-08-04T08:25:51.666Z,1.30
2022-08-04T08:28:18.612Z,1.10
2022-08-04T08:30:45.167Z,1.17
2022-08-04T08:33:20.637Z,1.20
2022-08-04T08:35:54.381Z,0.98
2022-08-04T08:38:34.957Z,1.30
2022-08-04T08:41:19.483Z,1.20
2022-08-04T08:44:07.647Z,1.30
2022-08-04T08:46:51.242Z,1.20
2022-08-04T08:50:02.228Z,1.00
2022-08-04T08:52:56.545Z,1.10
2022-08-04T08:55:40.561Z,1.40
2022-08-04T08:58:29.030Z,1.17
2022-08-04T09:01:06.780Z,1.13
2022-08-04T09:03:49.463Z,1.08
2022-08-04T09:06:37.788Z,1.13
2022-08-04T09:09:36.008Z,1.00
2022-08-04T09:12:09.626Z,1.08
2022-08-04T09:14:43.008Z,1.10
2022-08-04T09:17:18.506Z,1.15
2022-08-04T09:19:52.711Z,1.10
2022-08-04T09:22:22.421Z,1.40
2022-08-04T09:24:59.655Z,1.20
2022-08-04T09:27:32.191Z,1.30
2022-08-04T09:30:04.530Z,0.95
2022-08-04T09:32:38.779Z,1.20
2022-08-04T09:35:15.816Z,1.10
2022-08-04T09:37:48.383Z,1.20
2022-08-04T09:40:31.500Z,0.93
2022-08-04T09:43:26.391Z,1.00
2022-08-04T09:46:02.288Z,0.95
2022-08-04T09:48:36.967Z,0.82
2022-08-04T09:51:14.269Z,1.40
2022-08-04T09:53:55.220Z,1.20
2022-08-04T09:56:28.068Z,1.20
2022-08-04T09:59:06.676Z,0.93
2022-08-04T10:01:35.330Z,1.20
2022-08-04T10:04:04.744Z,1.17
2022-08-04T10:06:53.298Z,0.93
2022-08-04T10:09:43.491Z,1.27
2022-08-04T10:12:27.273Z,1.10
2022-08-04T10:15:06.518Z,1.15
2022-08-04T10:17:50.399Z,1.30
2022-08-04T10:20:36.580Z,1.13
2022-08-04T10:23:15.914Z,1.00
2022-08-04T10:26:06.052Z,1.08
2022-08-04T10:28:41.589Z,1.00
2022-08-04T10:31:13.212Z,0.95
2022-08-04T10:33:44.969Z,0.90
2022-08-04T10:36:16.333Z,1.00
2022-08-04T10:38:56.434Z,0.90
2022-08-04T10:41:30.241Z,1.00
2022-08-04T10:44:06.222Z,1.02
2022-08-04T10:46:37.592Z,1.08
2022-08-04T10:49:07.735Z,1.10
2022-08-04T10:51:58.815Z,0.80
2022-08-04T10:54:29.841Z,1.00
2022-08-04T10:57:02.614Z,1.00
2022-08-04T10:59:38.169Z,1.00
2022-08-04T11:02:18.545Z,1.05
2022-08-04T11:04:50.597Z,0.90
2022-08-04T11:07:17.601Z,0.93
2022-08-04T11:09:44.977Z,0.80
2022-08-04T11:12:17.082Z,1.20
2022-08-04T11:14:50.259Z,1.00
2022-08-04T11:17:24.362Z,1.17
2022-08-04T11:20:18.118Z,1.20
2022-08-04T11:22:52.409Z,0.90
2022-08-04T11:25:22.262Z,0.90
2022-08-04T11:28:01.403Z,0.85
2022-08-04T11:30:32.071Z,1.08
2022-08-04T11:33:06.680Z,1.17
2022-08-04T11:35:38.570Z,1.10
2022-08-04T11:38:09.892Z,1.08
2022-08-04T11:40:41.367Z,0.98
2022-08-04T11:44:00.714Z,1.10
2022-08-04T11:46:21.560Z,1.00
2022-08-04T11:48:56.338Z,0.98
2022-08-04T11:51:23.888Z,1.08
2022-08-04T11:53:50.638Z,1.20
2022-08-04T11:56:35.975Z,1.10
2022-08-04T11:59:06.345Z,1.17
2022-08-04T12:01:46.961Z,1.05
2022-08-04T12:04:24.180Z,0.98
2022-08-04T12:07:15.124Z,1.10
2022-08-04T12:09:48.679Z,1.10
2022-08-04T12:12:24.988Z,1.10
2022-08-04T12:15:03.325Z,1.23
2022-08-04T12:17:52.622Z,1.25
2022-08-04T12:20:38.083Z,1.00
2022-08-04T12:23:14.805Z,1.50
2022-08-04T12:25:46.834Z,1.17
2022-08-04T12:28:18.712Z,1.40
2022-08-04T12:31:01.566Z,1.13
2022-08-04T12:34:02.718Z,0.93
2022-08-04T12:36:31.940Z,1.00
2022-08-04T12:39:03.280Z,0.90
2022-08-04T12:41:36.296Z,1.20
2022-08-04T12:44:10.860Z,1.08
2022-08-04T12:47:26.916Z,1.20
2022-08-04T12:50:00.172Z,1.00
2022-08-04T12:55:19.555Z,0.80
2022-08-04T12:57:47.745Z,1.00
2022-08-04T13:00:26.259Z,0.80
2022-08-04T13:03:04.419Z,0.70
2022-08-04T13:05:32.400Z,0.90
2022-08-04T13:08:02.077Z,1.00
2022-08-04T13:10:30.564Z,0.70
2022-08-04T13:12:59.364Z,0.60
2022-08-04T13:15:27.872Z,0.80
2022-08-04T13:17:59.268Z,0.90
2022-08-04T13:20:28.241Z,0.70
2022-08-04T13:23:04.282Z,0.80
2022-08-04T13:26:42.428Z,0.65
2022-08-04T13:28:21.583Z,0.50
2022-08-04T13:30:52.923Z,0.60
2022-08-04T13:33:20.018Z,0.60
2022-08-04T13:35:55.181Z,0.65
2022-08-04T13:38:26.247Z,0.63
2022-08-04T13:40:53.871Z,0.70
2022-08-04T13:44:15.821Z,0.80
2022-08-04T13:46:27.821Z,0.70
2022-08-04T13:49:23.488Z,0.80
2022-08-04T13:51:58.452Z,0.60
2022-08-04T13:54:30.399Z,0.70
2022-08-04T13:57:01.706Z,0.80
2022-08-04T13:59:34.749Z,1.00
2022-08-04T14:02:05.220Z,0.80
2022-08-04T14:04:38.266Z,0.80
2022-08-04T14:07:18.022Z,0.80
2022-08-04T14:10:04.021Z,0.68
2022-08-04T14:12:45.324Z,0.73
2022-08-04T14:16:01.560Z,0.60
2022-08-04T14:18:22.917Z,0.80
2022-08-04T14:21:00.959Z,0.80
2022-08-04T14:23:33.315Z,0.68
2022-08-04T14:26:14.283Z,0.75
2022-08-04T14:29:24.993Z,0.65
2022-08-04T14:31:31.903Z,0.68
2022-08-04T14:34:04.444Z,0.65
2022-08-04T14:37:13.519Z,0.57
2022-08-04T14:39:37.393Z,0.60
2022-08-04T14:42:06.383Z,0.70
2022-08-04T14:44:52.689Z,0.50
2022-08-04T14:47:19.344Z,0.50
2022-08-04T14:49:54.726Z,0.60
2022-08-04T14:52:24.025Z,0.73
2022-08-04T14:54:50.823Z,0.50
2022-08-04T14:57:18.890Z,0.70
2022-08-04T15:00:00.579Z,0.77
2022-08-04T15:02:29.955Z,0.70
2022-08-04T15:04:58.912Z,0.82
2022-08-04T15:07:26.213Z,0.77
2022-08-04T15:09:53.519Z,0.60
2022-08-04T15:12:22.060Z,0.75
2022-08-04T15:14:49.186Z,0.60
2022-08-04T15:17:29.327Z,0.70
2022-08-04T15:19:56.997Z,0.80
2022-08-04T15:22:23.927Z,0.80
2022-08-04T15:24:54.756Z,0.70
2022-08-04T15:27:25.270Z,0.70
2022-08-04T15:30:00.941Z,0.80
2022-08-04T15:32:29.873Z,0.90
2022-08-04T15:35:02.158Z,0.60
2022-08-04T15:37:36.233Z,0.73
2022-08-04T15:40:09.450Z,0.90
2022-08-04T15:42:44.054Z,0.70
2022-08-04T15:45:18.362Z,0.68
2022-08-04T15:48:14.666Z,0.80
2022-08-04T15:51:17.015Z,0.70
2022-08-04T15:54:23.504Z,0.80
2022-08-04T15:57:02.094Z,0.80
2022-08-04T16:00:02.045Z,0.70
2022-08-04T16:02:35.332Z,0.75
2022-08-04T16:05:32.445Z,0.80
2022-08-04T16:08:00.362Z,0.80
2022-08-04T16:10:37.838Z,0.70
2022-08-04T16:13:06.349Z,0.90
2022-08-04T16:15:46.733Z,1.10
2022-08-04T16:18:26.648Z,1.30
2022-08-04T16:20:55.255Z,0.93
2022-08-04T16:23:57.960Z,0.82
2022-08-04T16:26:55.101Z,0.90
2022-08-04T16:29:36.747Z,0.90
2022-08-04T16:32:19.292Z,1.00
2022-08-04T16:34:55.579Z,0.90
2022-08-04T16:37:32.478Z,0.80
2022-08-04T16:40:34.708Z,0.82
2022-08-04T16:43:05.647Z,0.80
2022-08-04T16:45:52.531Z,1.00
2022-08-04T16:48:21.864Z,0.90
2022-08-04T16:50:52.045Z,0.70
2022-08-04T16:53:58.770Z,0.80
2022-08-04T16:56:07.000Z,0.70
2022-08-04T16:58:36.877Z,0.80
2022-08-04T17:01:08.487Z,0.80
2022-08-04T17:03:38.629Z,0.90
2022-08-04T17:06:06.956Z,0.80
2022-08-04T17:08:33.602Z,1.10
2022-08-04T17:11:00.186Z,0.80
2022-08-04T17:14:04.670Z,0.82
2022-08-04T17:16:18.275Z,1.00
2022-08-04T17:18:49.705Z,0.90
2022-08-04T17:21:18.729Z,0.80
2022-08-04T17:24:14.583Z,0.80
2022-08-04T17:26:39.749Z,0.70
2022-08-04T17:29:08.130Z,0.73
2022-08-04T17:31:37.081Z,0.80
2022-08-04T17:34:15.568Z,0.80
2022-08-04T17:36:43.899Z,0.93
2022-08-04T17:39:16.731Z,0.90
2022-08-04T17:41:46.680Z,1.10
2022-08-04T17:44:16.105Z,0.82
2022-08-04T17:46:44.260Z,1.00
2022-08-04T17:49:20.659Z,1.00
2022-08-04T17:52:05.235Z,1.00
2022-08-04T17:54:39.005Z,0.88
2022-08-04T17:57:14.672Z,1.00
2022-08-04T17:59:55.611Z,0.88
2022-08-04T18:02:32.583Z,1.00
2022-08-04T18:05:06.800Z,0.88
2022-08-04T18:08:34.484Z,0.98
2022-08-04T18:10:44.528Z,0.95
2022-08-04T18:13:21.658Z,1.02
2022-08-04T18:15:48.283Z,0.98
2022-08-04T18:18:20.456Z,1.20
2022-08-04T18:20:50.890Z,1.60
2022-08-04T18:23:17.417Z,1.83
2022-08-04T18:25:51.609Z,1.40
2022-08-04T18:28:26.439Z,1.23
2022-08-04T18:30:55.302Z,1.13
2022-08-04T18:33:40.174Z,1.10
2022-08-04T18:36:35.601Z,1.05
2022-08-04T18:38:58.629Z,0.90
2022-08-04T18:41:26.410Z,1.30
2022-08-04T18:43:55.763Z,1.10
2022-08-04T18:46:23.336Z,0.98
2022-08-04T18:48:53.617Z,1.00
2022-08-04T18:51:23.567Z,1.00
2022-08-04T18:53:55.260Z,1.00
2022-08-04T18:56:29.729Z,1.10
2022-08-04T18:58:59.829Z,1.05
2022-08-04T19:01:29.923Z,1.10
2022-08-04T19:04:34.174Z,1.00
2022-08-04T19:07:24.509Z,1.00
2022-08-04T19:09:51.866Z,0.82
2022-08-04T19:12:27.157Z,1.08
2022-08-04T19:14:58.294Z,1.20
2022-08-04T19:17:53.675Z,1.08
2022-08-04T19:20:16.145Z,1.33
2022-08-04T19:24:10.093Z,1.38
2022-08-04T19:25:59.303Z,1.15
2022-08-04T19:28:30.118Z,1.23
2022-08-04T19:31:01.373Z,1.08
2022-08-04T19:33:55.229Z,1.13
2022-08-04T19:36:17.273Z,1.33
2022-08-04T19:38:45.846Z,1.13
2022-08-04T19:41:14.248Z,1.02
2022-08-04T19:43:43.937Z,1.10
2022-08-04T19:46:12.295Z,1.10
2022-08-04T19:48:39.057Z,1.17
2022-08-04T19:51:05.764Z,1.30
2022-08-04T19:53:37.449Z,1.17
2022-08-04T19:56:06.638Z,1.25
2022-08-04T19:58:33.214Z,1.40
2022-08-04T20:00:59.768Z,1.50
2022-08-04T20:04:09.620Z,1.20
2022-08-04T20:06:13.165Z,1.50
2022-08-04T20:08:48.280Z,1.40
2022-08-04T20:11:18.542Z,1.35
2022-08-04T20:13:45.570Z,1.38
2022-08-04T20:16:29.712Z,1.30
2022-08-04T20:19:02.859Z,1.40
2022-08-04T20:21:36.636Z,1.30
2022-08-04T20:24:38.204Z,1.33
2022-08-04T20:29:55.394Z,1.27
2022-08-04T20:32:24.729Z,1.40
2022-08-04T20:34:52.850Z,1.13
2022-08-04T20:37:19.534Z,1.10
2022-08-04T20:39:54.535Z,1.13
2022-08-04T20:42:27.659Z,1.30
2022-08-04T20:45:00.463Z,1.48
2022-08-04T20:47:33.692Z,1.30
2022-08-04T20:50:03.216Z,0.98
2022-08-04T20:52:29.730Z,1.05
2022-08-04T20:54:56.419Z,1.17
2022-08-04T20:57:48.042Z,1.10
2022-08-04T21:02:58.854Z,1.00
2022-08-04T21:05:26.574Z,1.30
2022-08-04T21:07:53.343Z,1.10
2022-08-04T21:10:21.953Z,1.08
2022-08-04T21:12:50.147Z,1.20
2022-08-04T21:15:24.883Z,1.08
2022-08-04T21:17:59.192Z,1.17
2022-08-04T21:20:31.516Z,1.23
2022-08-04T21:22:59.850Z,0.95
2022-08-04T21:25:29.013Z,1.23
2022-08-04T21:27:58.615Z,1.23
2022-08-04T21:30:26.590Z,1.13
2022-08-04T21:32:55.245Z,1.10
2022-08-04T21:35:22.301Z,1.20
2022-08-04T21:38:04.037Z,1.23
2022-08-04T21:40:50.564Z,1.20
2022-08-04T21:43:23.557Z,1.10
2022-08-04T21:45:54.698Z,1.20
2022-08-04T21:48:21.389Z,1.10
2022-08-04T21:50:50.265Z,1.10
2022-08-04T21:53:19.695Z,1.20
2022-08-04T21:56:04.836Z,1.30
2022-08-04T21:58:34.488Z,1.35
2022-08-04T22:01:01.098Z,1.40
2022-08-04T22:03:51.888Z,1.40
2022-08-04T22:06:21.109Z,1.33
2022-08-04T22:08:56.024Z,1.33
2022-08-04T22:11:49.102Z,1.35
2022-08-04T22:14:17.437Z,1.30
2022-08-04T22:16:54.323Z,1.20
2022-08-04T22:19:24.012Z,1.30
2022-08-04T22:22:06.659Z,1.37
2022-08-04T22:24:36.111Z,1.73
2022-08-04T22:27:02.793Z,1.63
2022-08-04T22:29:39.407Z,1.37
2022-08-04T22:32:11.486Z,1.60
2022-08-04T22:34:38.039Z,1.57
2022-08-04T22:37:12.376Z,1.83
2022-08-04T22:39:56.316Z,1.63
2022-08-04T22:42:23.694Z,1.60
2022-08-04T22:44:51.582Z,1.60
2022-08-04T22:47:20.545Z,1.73
2022-08-04T22:49:56.508Z,1.70
2022-08-04T22:52:36.838Z,1.77
2022-08-04T22:55:22.138Z,1.80
2022-08-04T22:58:05.612Z,1.67
2022-08-04T23:00:38.352Z,1.73
2022-08-04T23:03:06.738Z,1.60
2022-08-04T23:05:37.824Z,1.70
2022-08-04T23:08:05.286Z,2.00
2022-08-04T23:10:33.008Z,1.80
2022-08-04T23:13:03.994Z,1.70
2022-08-04T23:15:33.476Z,1.57
2022-08-04T23:18:01.867Z,1.47
2022-08-04T23:20:32.321Z,1.60
2022-08-04T23:23:00.059Z,1.80
2022-08-04T23:26:07.743Z,1.80
2022-08-04T23:28:30.563Z,1.80
2022-08-04T23:30:57.329Z,1.63
2022-08-04T23:33:25.269Z,1.60
2022-08-04T23:36:12.020Z,1.73
2022-08-04T23:38:38.725Z,1.40
2022-08-04T23:41:06.362Z,1.80
2022-08-04T23:43:38.499Z,1.60
2022-08-04T23:46:16.009Z,1.40
2022-08-04T23:48:45.438Z,1.30
2022-08-04T23:51:15.092Z,1.60
2022-08-04T23:54:01.585Z,1.80
2022-08-04T23:56:29.291Z,1.50
2022-08-04T23:58:55.854Z,1.57
